createdAt,value
2018-04-11T00:00:09.203Z,20.40
2018-04-11T00:02:37.831Z,19.23
2018-04-11T00:05:06.132Z,20.80
2018-04-11T00:07:34.256Z,16.40
2018-04-11T00:10:01.932Z,18.03
2018-04-11T00:12:29.468Z,19.63
2018-04-11T00:14:57.622Z,18.70
2018-04-11T00:17:26.814Z,16.97
2018-04-11T00:19:56.057Z,19.17
2018-04-11T00:22:23.605Z,20.10
2018-04-11T00:24:51.987Z,19.23
2018-04-11T00:27:19.771Z,18.27
2018-04-11T00:29:49.035Z,15.47
2018-04-11T00:32:20.463Z,15.13
2018-04-11T00:34:48.099Z,12.27
2018-04-11T00:37:15.639Z,10.27
2018-04-11T00:39:43.198Z,9.50
2018-04-11T00:42:10.716Z,8.73
2018-04-11T00:44:38.990Z,9.07
2018-04-11T00:47:06.511Z,10.23
2018-04-11T00:49:34.063Z,9.30
2018-04-11T00:52:01.591Z,8.87
2018-04-11T00:54:29.344Z,8.80
2018-04-11T00:56:56.846Z,8.38
2018-04-11T00:59:24.389Z,9.77
2018-04-11T01:01:51.902Z,9.43
2018-04-11T01:04:19.987Z,9.00
2018-04-11T01:06:47.540Z,9.50
2018-04-11T01:09:15.105Z,10.70
2018-04-11T01:11:42.636Z,12.33
2018-04-11T01:14:10.182Z,13.03
2018-04-11T01:16:37.698Z,12.00
2018-04-11T01:19:05.460Z,15.33
2018-04-11T01:21:33.095Z,15.18
2018-04-11T01:24:00.665Z,13.50
2018-04-11T01:26:28.220Z,12.03
2018-04-11T01:28:55.775Z,14.20
2018-04-11T01:31:23.334Z,15.87
2018-04-11T01:33:50.879Z,15.93
2018-04-11T01:36:18.765Z,17.90
2018-04-11T01:38:46.298Z,17.67
2018-04-11T01:41:13.860Z,16.50
2018-04-11T01:43:42.317Z,17.83
2018-04-11T01:46:09.866Z,19.07
2018-04-11T01:48:37.379Z,16.90
2018-04-11T01:51:04.947Z,17.67
2018-04-11T01:53:32.465Z,18.30
2018-04-11T01:56:00.036Z,17.10
2018-04-11T01:58:27.570Z,20.37
2018-04-11T02:00:55.175Z,17.62
2018-04-11T02:03:22.691Z,19.83
2018-04-11T02:05:50.238Z,18.73
2018-04-11T02:08:17.774Z,18.42
2018-04-11T02:10:45.349Z,16.83
2018-04-11T02:13:12.871Z,16.50
2018-04-11T02:15:40.422Z,14.82
2018-04-11T02:18:07.946Z,18.23
2018-04-11T02:20:35.526Z,17.37
2018-04-11T02:23:03.057Z,19.87
2018-04-11T02:25:30.605Z,16.00
2018-04-11T02:27:58.127Z,16.30
2018-04-11T02:30:25.679Z,18.07
2018-04-11T02:32:53.212Z,16.13
2018-04-11T02:35:20.765Z,16.85
2018-04-11T02:37:48.319Z,15.13
2018-04-11T02:40:15.875Z,12.50
2018-04-11T02:42:43.394Z,11.60
2018-04-11T02:45:10.954Z,11.80
2018-04-11T02:47:38.525Z,12.90
2018-04-11T02:50:06.109Z,11.90
2018-04-11T02:52:33.628Z,11.47
2018-04-11T02:55:01.182Z,10.67
2018-04-11T02:57:28.702Z,12.33
2018-04-11T02:59:56.234Z,12.87
2018-04-11T03:02:23.788Z,13.00
2018-04-11T03:04:51.315Z,13.60
2018-04-11T03:07:18.956Z,12.17
2018-04-11T03:09:46.482Z,14.33
2018-04-11T03:12:14.036Z,14.13
2018-04-11T03:14:41.554Z,20.87
2018-04-11T03:17:09.914Z,15.70
2018-04-11T03:19:37.440Z,15.27
2018-04-11T03:22:04.994Z,20.07
2018-04-11T03:24:32.596Z,21.93
2018-04-11T03:27:00.167Z,25.97
2018-04-11T03:29:27.691Z,42.85
2018-04-11T03:31:55.278Z,47.93
2018-04-11T03:34:22.809Z,30.97
2018-04-11T03:36:50.374Z,38.67
2018-04-11T03:39:17.899Z,42.43
2018-04-11T03:41:45.456Z,40.37
2018-04-11T03:44:12.980Z,35.77
2018-04-11T03:46:40.531Z,25.03
2018-04-11T03:49:08.065Z,25.33
2018-04-11T03:51:35.609Z,26.47
2018-04-11T03:54:03.133Z,31.63
2018-04-11T03:56:30.750Z,31.07
2018-04-11T03:58:58.309Z,27.23
2018-04-11T04:01:25.868Z,34.88
2018-04-11T04:03:53.386Z,29.00
2018-04-11T04:06:20.950Z,30.10
2018-04-11T04:08:48.478Z,37.17
2018-04-11T04:11:16.026Z,30.27
2018-04-11T04:13:55.299Z,28.73
2018-04-11T04:16:34.375Z,27.30
2018-04-11T04:19:13.671Z,29.20
2018-04-11T04:21:41.225Z,41.07
2018-04-11T04:24:08.770Z,35.77
2018-04-11T04:26:36.333Z,37.07
2018-04-11T04:29:03.875Z,31.10
2018-04-11T04:31:31.429Z,32.17
2018-04-11T04:33:58.950Z,26.73
2018-04-11T04:36:26.503Z,24.63
2018-04-11T04:38:54.051Z,23.87
2018-04-11T04:41:21.580Z,22.40
2018-04-11T04:43:49.188Z,21.08
2018-04-11T04:46:16.715Z,21.67
2018-04-11T04:48:44.290Z,19.47
2018-04-11T04:51:12.263Z,17.43
2018-04-11T04:53:39.821Z,17.80
2018-04-11T04:56:07.340Z,22.97
2018-04-11T04:58:34.897Z,19.67
2018-04-11T05:01:02.431Z,24.63
2018-04-11T05:03:29.994Z,20.83
2018-04-11T05:05:57.576Z,24.92
2018-04-11T05:08:27.541Z,22.40
2018-04-11T05:10:56.539Z,22.13
2018-04-11T05:13:27.789Z,23.20
2018-04-11T05:15:56.671Z,21.37
2018-04-11T05:18:27.391Z,21.03
2018-04-11T05:20:55.086Z,21.23
2018-04-11T05:23:23.255Z,20.08
2018-04-11T05:25:50.932Z,23.30
2018-04-11T05:28:21.805Z,24.47
2018-04-11T05:30:49.653Z,21.10
2018-04-11T05:33:17.482Z,22.47
2018-04-11T05:35:45.424Z,21.27
2018-04-11T05:38:14.028Z,19.60
2018-04-11T05:40:42.757Z,22.85
2018-04-11T05:43:10.540Z,24.90
2018-04-11T05:45:38.544Z,21.30
2018-04-11T05:48:06.156Z,21.47
2018-04-11T05:50:36.020Z,20.60
2018-04-11T05:53:07.505Z,20.17
2018-04-11T05:55:37.738Z,20.17
2018-04-11T05:58:05.467Z,20.60
2018-04-11T06:00:32.981Z,18.57
2018-04-11T06:03:00.835Z,20.57
2018-04-11T06:05:29.664Z,25.83
2018-04-11T06:07:57.250Z,19.73
2018-04-11T06:10:24.779Z,16.60
2018-04-11T06:12:52.331Z,21.10
2018-04-11T06:15:19.854Z,18.87
2018-04-11T06:17:51.972Z,27.53
2018-04-11T06:20:19.488Z,19.12
2018-04-11T06:22:47.052Z,18.60
2018-04-11T06:25:15.361Z,17.55
2018-04-11T06:27:42.994Z,15.10
2018-04-11T06:30:10.559Z,18.52
2018-04-11T06:32:38.078Z,18.33
2018-04-11T06:35:05.681Z,18.52
2018-04-11T06:37:33.186Z,16.27
2018-04-11T06:40:00.735Z,19.73
2018-04-11T06:42:28.286Z,19.03
2018-04-11T06:44:55.880Z,19.90
2018-04-11T06:47:23.457Z,20.50
2018-04-11T06:49:50.994Z,19.20
2018-04-11T06:52:18.515Z,21.63
2018-04-11T06:54:46.056Z,17.80
2018-04-11T06:57:13.603Z,17.87
2018-04-11T06:59:41.199Z,18.30
2018-04-11T07:02:08.730Z,18.83
2018-04-11T07:04:36.304Z,18.67
2018-04-11T07:07:03.839Z,16.20
2018-04-11T07:09:31.398Z,17.40
2018-04-11T07:14:32.625Z,20.67
2018-04-11T07:17:00.142Z,16.17
2018-04-11T07:19:27.704Z,16.27
2018-04-11T07:21:55.228Z,19.67
2018-04-11T07:24:22.804Z,20.43
2018-04-11T07:26:50.319Z,18.90
2018-04-11T07:29:17.912Z,20.53
2018-04-11T07:31:46.405Z,21.63
2018-04-11T07:34:13.962Z,24.70
2018-04-11T07:36:41.605Z,25.53
2018-04-11T07:39:09.158Z,28.80
2018-04-11T07:41:36.787Z,25.60
2018-04-11T07:44:04.422Z,32.27
2018-04-11T07:46:31.954Z,47.23
2018-04-11T07:48:59.525Z,39.53
2018-04-11T07:51:27.051Z,36.03
2018-04-11T07:53:54.619Z,36.33
2018-04-11T07:56:22.143Z,38.88
2018-04-11T07:58:50.426Z,41.60
2018-04-11T08:01:17.970Z,47.30
2018-04-11T08:03:46.224Z,50.13
2018-04-11T08:06:13.766Z,51.70
2018-04-11T08:08:41.310Z,48.67
2018-04-11T08:11:08.881Z,46.03
2018-04-11T08:13:36.441Z,40.43
2018-04-11T08:16:04.012Z,41.67
2018-04-11T08:18:31.550Z,48.43
2018-04-11T08:20:59.128Z,72.70
2018-04-11T08:23:30.368Z,60.67
2018-04-11T08:26:02.218Z,51.72
2018-04-11T08:28:31.773Z,64.77
2018-04-11T08:31:02.553Z,104.20
2018-04-11T08:33:33.726Z,113.80
2018-04-11T08:36:03.338Z,104.00
2018-04-11T08:38:34.073Z,75.05
2018-04-11T08:41:04.951Z,61.77
2018-04-11T08:43:32.664Z,99.70
2018-04-11T08:46:02.673Z,131.65
2018-04-11T08:48:31.413Z,150.30
2018-04-11T08:51:01.969Z,146.90
2018-04-11T08:53:32.646Z,190.97
2018-04-11T08:56:02.810Z,93.65
2018-04-11T08:58:31.051Z,86.20
2018-04-11T09:01:00.374Z,81.13
2018-04-11T09:03:28.616Z,52.40
2018-04-11T09:05:56.190Z,36.03
2018-04-11T09:08:23.816Z,25.65
2018-04-11T09:10:51.717Z,22.43
2018-04-11T09:13:19.625Z,19.37
2018-04-11T09:15:51.961Z,21.33
2018-04-11T09:18:22.445Z,19.62
2018-04-11T09:20:51.213Z,20.08
2018-04-11T09:23:18.848Z,19.57
2018-04-11T09:25:46.437Z,17.07
2018-04-11T09:28:16.666Z,16.97
2018-04-11T09:30:44.519Z,14.77
2018-04-11T09:33:14.846Z,14.85
2018-04-11T09:35:45.376Z,12.75
2018-04-11T09:38:14.747Z,10.83
2018-04-11T09:40:45.701Z,10.15
2018-04-11T09:43:15.927Z,9.00
2018-04-11T09:45:48.626Z,12.00
2018-04-11T09:48:16.358Z,15.10
2018-04-11T09:50:44.819Z,11.17
2018-04-11T09:53:13.837Z,8.63
2018-04-11T09:55:41.487Z,6.73
2018-04-11T09:58:11.752Z,7.23
2018-04-11T10:00:39.895Z,7.87
2018-04-11T10:03:08.800Z,13.73
2018-04-11T10:05:39.894Z,12.87
2018-04-11T10:08:07.874Z,13.50
2018-04-11T10:10:35.471Z,13.30
2018-04-11T10:13:03.692Z,13.27
2018-04-11T10:15:31.565Z,14.20
2018-04-11T10:17:59.339Z,14.57
2018-04-11T10:20:28.539Z,14.03
2018-04-11T10:22:57.779Z,14.10
2018-04-11T10:25:29.740Z,12.70
2018-04-11T10:27:58.247Z,11.83
2018-04-11T10:30:26.554Z,12.52
2018-04-11T10:32:54.203Z,13.50
2018-04-11T10:35:21.759Z,12.10
2018-04-11T10:37:52.005Z,9.65
2018-04-11T10:40:20.369Z,6.53
2018-04-11T10:42:47.971Z,4.20
2018-04-11T10:45:15.805Z,6.73
2018-04-11T10:47:43.903Z,5.07
2018-04-11T10:50:14.216Z,7.20
2018-04-11T10:52:41.918Z,5.47
2018-04-11T10:55:12.223Z,3.93
2018-04-11T10:57:40.044Z,4.90
2018-04-11T11:00:12.820Z,3.87
2018-04-11T11:02:40.602Z,2.60
2018-04-11T11:05:08.149Z,2.93
2018-04-11T11:07:35.690Z,4.27
2018-04-11T11:10:03.204Z,4.40
2018-04-11T11:12:30.770Z,5.55
2018-04-11T11:14:58.286Z,4.40
2018-04-11T11:17:25.841Z,6.62
2018-04-11T11:20:08.950Z,4.73
2018-04-11T11:22:36.502Z,5.67
2018-04-11T11:25:04.041Z,6.97
2018-04-11T11:27:31.697Z,6.83
2018-04-11T11:29:59.231Z,6.03
2018-04-11T11:32:26.793Z,3.22
2018-04-11T11:34:54.326Z,3.33
2018-04-11T11:37:21.888Z,3.83
2018-04-11T11:39:49.411Z,2.90
2018-04-11T11:42:16.978Z,1.80
2018-04-11T11:44:44.513Z,2.57
2018-04-11T11:47:12.093Z,1.85
2018-04-11T11:49:39.616Z,2.07
2018-04-11T11:52:07.485Z,2.47
2018-04-11T11:54:35.257Z,2.30
2018-04-11T11:57:02.823Z,2.50
2018-04-11T11:59:30.456Z,3.05
2018-04-11T12:01:58.006Z,2.75
2018-04-11T12:04:25.551Z,2.75
2018-04-11T12:06:53.182Z,2.20
2018-04-11T12:09:20.711Z,2.70
2018-04-11T12:11:48.292Z,2.50
2018-04-11T12:14:15.866Z,2.73
2018-04-11T12:16:44.374Z,2.90
2018-04-11T12:19:11.899Z,2.70
2018-04-11T12:21:39.497Z,2.77
2018-04-11T12:24:07.057Z,2.40
2018-04-11T12:26:34.781Z,2.13
2018-04-11T12:29:02.304Z,2.30
2018-04-11T12:31:30.005Z,2.20
2018-04-11T13:37:08.942Z,1.85
2018-04-11T13:39:36.534Z,1.70
2018-04-11T13:42:04.090Z,1.87
2018-04-11T13:44:31.632Z,1.97
2018-04-11T13:46:59.228Z,1.93
2018-04-11T13:49:26.890Z,1.40
2018-04-11T13:51:54.507Z,1.63
2018-04-11T13:54:22.061Z,1.80
2018-04-11T13:56:49.661Z,1.80
2018-04-11T13:59:17.764Z,2.00
2018-04-11T14:01:45.402Z,2.03
2018-04-11T14:04:12.993Z,1.98
2018-04-11T14:06:40.496Z,2.03
2018-04-11T14:09:08.291Z,1.92
2018-04-11T14:11:36.385Z,1.73
2018-04-11T14:14:04.053Z,1.80
2018-04-11T14:16:31.820Z,2.03
2018-04-11T14:18:59.383Z,1.43
2018-04-11T14:21:27.411Z,1.73
2018-04-11T14:23:55.212Z,1.97
2018-04-11T14:26:22.814Z,1.37
2018-04-11T14:28:50.500Z,2.00
2018-04-11T14:31:18.018Z,1.60
2018-04-11T14:33:45.570Z,1.57
2018-04-11T14:36:13.903Z,1.47
2018-04-11T14:38:41.923Z,1.40
2018-04-11T14:41:09.527Z,1.40
2018-04-11T14:43:37.199Z,1.63
2018-04-11T14:46:04.730Z,1.57
2018-04-11T14:48:32.289Z,1.07
2018-04-11T14:50:59.955Z,1.50
2018-04-11T14:53:27.836Z,1.40
2018-04-11T14:55:55.910Z,1.30
2018-04-11T14:58:23.493Z,1.50
2018-04-11T15:00:51.023Z,3.67
2018-04-11T15:03:18.572Z,7.87
2018-04-11T15:05:46.093Z,2.63
2018-04-11T15:08:14.101Z,2.67
2018-04-11T15:10:41.661Z,1.30
2018-04-11T15:13:09.231Z,1.23
2018-04-11T15:15:36.781Z,1.62
2018-04-11T15:18:04.322Z,1.30
2018-04-11T15:20:34.188Z,1.20
2018-04-11T15:23:01.890Z,1.30
2018-04-11T15:25:29.420Z,1.00
2018-04-11T15:27:56.994Z,1.13
2018-04-11T15:30:24.506Z,1.10
2018-04-11T15:32:52.023Z,1.10
2018-04-11T15:35:19.578Z,1.00
2018-04-11T15:37:47.127Z,1.00
2018-04-11T15:40:14.707Z,1.10
2018-04-11T15:42:42.216Z,0.87
2018-04-11T15:45:09.758Z,1.40
2018-04-11T15:47:37.287Z,1.30
2018-04-11T15:50:04.841Z,0.97
2018-04-11T15:52:32.365Z,1.63
2018-04-11T15:54:59.921Z,1.20
2018-04-11T15:57:27.443Z,0.97
2018-04-11T15:59:56.698Z,3.50
2018-04-11T16:02:25.274Z,2.40
2018-04-11T16:04:53.746Z,3.20
2018-04-11T16:07:21.301Z,2.60
2018-04-11T16:09:48.858Z,1.87
2018-04-11T16:12:16.383Z,1.50
2018-04-11T16:14:43.938Z,1.40
2018-04-11T16:17:12.135Z,1.92
2018-04-11T16:19:39.787Z,1.17
2018-04-11T16:22:07.338Z,1.33
2018-04-11T16:24:34.916Z,0.87
2018-04-11T16:27:02.449Z,1.03
2018-04-11T16:29:30.003Z,1.27
2018-04-11T16:31:57.687Z,1.20
2018-04-11T16:34:25.353Z,3.43
2018-04-11T16:36:52.881Z,1.27
2018-04-11T16:39:20.484Z,1.37
2018-04-11T16:41:48.009Z,2.70
2018-04-11T16:44:15.565Z,1.23
2018-04-11T16:46:43.118Z,1.10
2018-04-11T16:49:10.694Z,1.25
2018-04-11T16:51:42.609Z,1.15
2018-04-11T16:54:10.948Z,1.17
2018-04-11T16:56:45.299Z,1.03
2018-04-11T16:59:17.903Z,1.30
2018-04-11T17:01:52.775Z,1.60
2018-04-11T17:04:24.306Z,0.90
2018-04-11T17:06:59.320Z,1.03
2018-04-11T17:09:33.523Z,1.20
2018-04-11T17:12:04.875Z,1.27
2018-04-11T17:14:41.028Z,1.20
2018-04-11T17:17:17.344Z,1.30
2018-04-11T17:19:52.226Z,1.30
2018-04-11T17:25:20.697Z,1.30
2018-04-11T17:33:45.958Z,1.50
2018-04-11T17:36:15.931Z,1.50
2018-04-11T17:38:45.538Z,1.10
2018-04-11T17:41:14.038Z,1.40
2018-04-11T17:43:49.393Z,1.42
2018-04-11T17:46:20.093Z,1.50
2018-04-11T17:48:48.644Z,1.30
2018-04-11T17:51:16.227Z,1.37
2018-04-11T17:53:45.781Z,1.50
2018-04-11T17:56:16.346Z,1.60
2018-04-11T17:58:45.106Z,1.80
2018-04-11T18:01:14.359Z,1.30
2018-04-11T18:03:43.069Z,1.60
2018-04-11T18:06:10.745Z,1.40
2018-04-11T18:08:38.253Z,1.50
2018-04-11T18:11:05.817Z,1.80
2018-04-11T18:13:33.371Z,1.93
2018-04-11T18:16:00.989Z,1.87
2018-04-11T18:18:28.502Z,1.83
2018-04-11T18:20:56.045Z,3.07
2018-04-11T18:23:23.545Z,4.63
2018-04-11T18:25:51.110Z,4.10
2018-04-11T18:28:18.634Z,5.30
2018-04-11T18:30:46.236Z,5.23
2018-04-11T18:33:13.766Z,3.03
2018-04-11T18:35:41.315Z,2.23
2018-04-11T18:38:08.865Z,2.07
2018-04-11T18:40:36.418Z,1.70
2018-04-11T18:43:03.948Z,1.40
2018-04-11T18:45:31.465Z,1.40
2018-04-11T18:47:59.025Z,1.50
2018-04-11T18:50:26.554Z,1.30
2018-04-11T18:52:54.107Z,1.27
2018-04-11T18:55:21.687Z,1.20
2018-04-11T18:57:49.225Z,1.53
2018-04-11T19:00:16.759Z,1.30
2018-04-11T19:02:44.316Z,1.40
2018-04-11T19:05:11.848Z,1.17
2018-04-11T19:07:39.395Z,1.60
2018-04-11T19:10:06.905Z,1.70
2018-04-11T19:12:34.475Z,1.63
2018-04-11T19:15:02.078Z,1.60
2018-04-11T19:17:29.629Z,1.98
2018-04-11T19:19:57.152Z,1.50
2018-04-11T19:22:24.701Z,1.77
2018-04-11T19:24:52.865Z,1.83
2018-04-11T19:27:22.304Z,1.80
2018-04-11T19:29:49.892Z,2.10
2018-04-11T19:32:17.443Z,2.00
2018-04-11T19:34:45.005Z,1.95
2018-04-11T19:37:12.668Z,1.75
2018-04-11T19:39:40.209Z,2.07
2018-04-11T19:42:08.102Z,1.83
2018-04-11T19:44:35.909Z,2.00
2018-04-11T19:47:04.960Z,1.53
2018-04-11T19:49:33.123Z,1.80
2018-04-11T19:52:00.792Z,2.00
2018-04-11T19:54:28.612Z,1.60
2018-04-11T19:56:56.168Z,2.27
2018-04-11T19:59:24.243Z,1.80
2018-04-11T20:01:51.958Z,2.10
2018-04-11T20:04:19.471Z,2.20
2018-04-11T20:06:47.027Z,2.20
2018-04-11T20:09:14.547Z,1.90
2018-04-11T20:11:42.101Z,1.80
2018-04-11T20:14:17.965Z,2.00
2018-04-11T20:16:45.599Z,1.90
2018-04-11T20:19:13.158Z,2.03
2018-04-11T20:21:40.690Z,2.10
2018-04-11T20:24:08.290Z,2.20
2018-04-11T20:26:36.344Z,2.40
2018-04-11T20:29:05.046Z,2.53
2018-04-11T20:31:32.597Z,2.53
2018-04-11T20:34:00.152Z,3.13
2018-04-11T20:36:27.713Z,2.73
2018-04-11T20:38:55.271Z,2.87
2018-04-11T20:41:22.807Z,2.60
2018-04-11T20:43:50.390Z,2.87
2018-04-11T20:46:17.962Z,2.62
2018-04-11T20:48:45.614Z,3.20
2018-04-11T20:51:13.172Z,3.20
2018-04-11T20:53:40.719Z,2.83
2018-04-11T20:56:10.300Z,2.87
2018-04-11T20:58:38.070Z,3.20
2018-04-11T21:01:06.525Z,3.50
2018-04-11T21:03:34.208Z,3.43
2018-04-11T21:06:01.858Z,3.27
2018-04-11T21:08:30.684Z,3.23
2018-04-11T21:10:58.255Z,4.03
2018-04-11T21:13:25.837Z,3.93
2018-04-11T21:15:53.368Z,3.87
2018-04-11T21:18:22.100Z,4.03
2018-04-11T21:20:49.722Z,4.10
2018-04-11T21:23:17.273Z,3.80
2018-04-11T21:25:45.547Z,4.95
2018-04-11T21:28:13.202Z,6.93
2018-04-11T21:30:40.731Z,6.53
2018-04-11T21:33:08.305Z,6.67
2018-04-11T21:35:35.834Z,6.93
2018-04-11T21:38:03.462Z,7.70
2018-04-11T21:40:31.021Z,6.93
2018-04-11T21:42:58.678Z,6.53
2018-04-11T21:45:26.218Z,6.70
2018-04-11T21:47:53.770Z,6.03
2018-04-11T21:50:21.295Z,5.78
2018-04-11T21:52:48.876Z,6.07
2018-04-11T21:55:16.398Z,5.47
2018-04-11T21:57:44.954Z,5.73
2018-04-11T22:00:16.175Z,5.68
2018-04-11T22:02:47.681Z,4.67
2018-04-11T22:05:15.530Z,5.03
2018-04-11T22:07:43.056Z,4.33
2018-04-11T22:10:11.544Z,4.20
2018-04-11T22:12:39.223Z,3.93
2018-04-11T22:15:07.843Z,4.32
2018-04-11T22:17:35.569Z,4.43
2018-04-11T22:20:03.243Z,3.87
2018-04-11T22:22:30.948Z,4.07
2018-04-11T22:24:58.662Z,4.30
2018-04-11T22:27:26.727Z,4.13
2018-04-11T22:29:55.442Z,3.75
2018-04-11T22:32:23.154Z,4.07
2018-04-11T22:34:51.741Z,4.32
2018-04-11T22:37:19.320Z,4.40
2018-04-11T22:39:46.983Z,4.90
2018-04-11T22:42:14.586Z,4.80
2018-04-11T22:44:42.213Z,5.43
2018-04-11T22:47:09.773Z,4.83
2018-04-11T22:49:37.689Z,4.90
2018-04-11T22:52:05.301Z,4.87
2018-04-11T22:54:32.955Z,5.20
2018-04-11T22:57:00.853Z,5.37
2018-04-11T22:59:29.579Z,5.37
2018-04-11T23:01:57.186Z,5.07
2018-04-11T23:04:26.637Z,5.10
2018-04-11T23:06:54.344Z,5.03
2018-04-11T23:09:22.741Z,4.77
2018-04-11T23:11:50.276Z,5.10
2018-04-11T23:14:20.272Z,5.13
2018-04-11T23:16:48.278Z,4.90
2018-04-11T23:19:15.924Z,4.80
2018-04-11T23:21:44.814Z,4.90
2018-04-11T23:24:12.477Z,5.40
2018-04-11T23:26:40.253Z,4.73
2018-04-11T23:29:07.911Z,4.83
2018-04-11T23:31:35.475Z,4.90
2018-04-11T23:34:03.081Z,4.63
2018-04-11T23:36:30.682Z,5.43
2018-04-11T23:38:58.241Z,5.10
2018-04-11T23:41:25.801Z,4.93
2018-04-11T23:43:53.480Z,5.13
2018-04-11T23:46:21.026Z,5.57
2018-04-11T23:48:48.553Z,5.80
2018-04-11T23:51:16.143Z,4.62
2018-04-11T23:53:43.702Z,4.93
2018-04-11T23:56:11.283Z,5.00
2018-04-11T23:58:38.893Z,5.35
